createdAt,value
2022-12-29T00:00:02.889Z,9.04
2022-12-29T00:01:03.108Z,9.04
2022-12-29T00:02:02.873Z,9.08
2022-12-29T00:03:02.962Z,9.08
2022-12-29T00:04:02.898Z,9.10
2022-12-29T00:05:02.857Z,9.13
2022-12-29T00:06:02.821Z,9.13
2022-12-29T00:07:02.815Z,9.13
2022-12-29T00:08:02.800Z,9.14
2022-12-29T00:09:02.798Z,9.14
2022-12-29T00:10:02.778Z,9.14
2022-12-29T00:11:02.789Z,9.15
2022-12-29T00:12:02.794Z,9.15
2022-12-29T00:13:02.751Z,9.15
2022-12-29T00:14:02.743Z,9.15
2022-12-29T00:15:02.724Z,9.17
2022-12-29T00:16:02.813Z,9.18
2022-12-29T00:17:02.714Z,9.17
2022-12-29T00:18:02.711Z,9.15
2022-12-29T00:19:02.682Z,9.17
2022-12-29T00:20:02.675Z,9.18
2022-12-29T00:21:02.679Z,9.20
2022-12-29T00:22:02.665Z,9.23
2022-12-29T00:23:02.654Z,9.21
2022-12-29T00:24:02.627Z,9.21
2022-12-29T00:25:02.625Z,9.24
2022-12-29T00:26:02.605Z,9.24
2022-12-29T00:27:02.608Z,9.28
2022-12-29T00:28:07.169Z,9.24
2022-12-29T00:29:02.586Z,9.24
2022-12-29T00:30:02.567Z,9.24
2022-12-29T00:31:02.660Z,9.26
2022-12-29T00:32:02.554Z,9.28
2022-12-29T00:33:02.564Z,9.26
2022-12-29T00:34:02.536Z,9.26
2022-12-29T00:35:02.534Z,9.28
2022-12-29T00:36:02.507Z,9.26
2022-12-29T00:37:02.528Z,9.26
2022-12-29T00:38:02.483Z,9.28
2022-12-29T00:39:02.494Z,9.29
2022-12-29T00:40:02.459Z,9.28
2022-12-29T00:41:02.453Z,9.29
2022-12-29T00:42:02.437Z,9.32
2022-12-29T00:43:02.446Z,9.31
2022-12-29T00:44:02.440Z,9.32
2022-12-29T00:45:02.440Z,9.32
2022-12-29T00:46:02.413Z,9.36
2022-12-29T00:47:02.467Z,9.35
2022-12-29T00:48:02.373Z,9.35
2022-12-29T00:49:02.374Z,9.33
2022-12-29T00:50:02.356Z,9.33
2022-12-29T00:51:02.362Z,9.36
2022-12-29T00:52:02.359Z,9.36
2022-12-29T00:53:02.323Z,9.35
2022-12-29T00:54:02.309Z,9.38
2022-12-29T00:55:02.310Z,9.39
2022-12-29T00:56:02.294Z,9.39
2022-12-29T00:57:02.333Z,9.40
2022-12-29T00:58:02.264Z,9.40
2022-12-29T00:59:02.289Z,9.40
2022-12-29T01:00:02.251Z,9.40
2022-12-29T01:01:02.282Z,9.40
2022-12-29T01:02:02.357Z,9.39
2022-12-29T01:03:02.337Z,9.40
2022-12-29T01:04:04.488Z,9.43
2022-12-29T01:05:02.196Z,9.43
2022-12-29T01:06:02.183Z,9.43
2022-12-29T01:07:02.178Z,9.42
2022-12-29T01:08:02.171Z,9.43
2022-12-29T01:09:02.174Z,9.42
2022-12-29T01:10:02.141Z,9.42
2022-12-29T01:11:02.134Z,9.43
2022-12-29T01:12:02.114Z,9.46
2022-12-29T01:13:02.106Z,9.47
2022-12-29T01:14:02.123Z,9.47
2022-12-29T01:15:02.085Z,9.48
2022-12-29T01:16:02.102Z,9.48
2022-12-29T01:17:02.072Z,9.47
2022-12-29T01:18:02.055Z,9.50
2022-12-29T01:19:02.039Z,9.50
2022-12-29T01:20:02.087Z,9.51
2022-12-29T01:21:02.014Z,9.51
2022-12-29T01:22:02.026Z,9.53
2022-12-29T01:23:01.996Z,9.51
2022-12-29T01:24:02.007Z,9.53
2022-12-29T01:25:02.005Z,9.54
2022-12-29T01:26:01.955Z,9.56
2022-12-29T01:27:01.980Z,9.57
2022-12-29T01:28:01.949Z,9.57
2022-12-29T01:29:01.961Z,9.58
2022-12-29T01:30:01.937Z,9.61
2022-12-29T01:31:01.926Z,9.61
2022-12-29T01:32:01.975Z,9.65
2022-12-29T01:33:01.891Z,9.66
2022-12-29T01:34:01.904Z,9.66
2022-12-29T01:35:01.868Z,9.65
2022-12-29T01:36:01.868Z,9.68
2022-12-29T01:37:01.871Z,9.69
2022-12-29T01:38:01.835Z,9.68
2022-12-29T01:39:01.822Z,9.69
2022-12-29T01:40:01.821Z,9.71
2022-12-29T01:41:01.803Z,9.72
2022-12-29T01:42:01.787Z,9.72
2022-12-29T01:43:01.801Z,9.74
2022-12-29T01:44:01.778Z,9.75
2022-12-29T01:45:01.758Z,9.75
2022-12-29T01:46:01.763Z,9.74
2022-12-29T01:47:01.753Z,9.76
2022-12-29T01:48:01.735Z,9.76
2022-12-29T01:49:01.768Z,9.75
2022-12-29T01:50:01.732Z,9.74
2022-12-29T01:51:01.696Z,9.75
2022-12-29T01:52:01.681Z,9.74
2022-12-29T01:53:01.677Z,9.74
2022-12-29T01:54:01.660Z,9.75
2022-12-29T01:55:01.648Z,9.75
2022-12-29T01:56:01.634Z,9.76
2022-12-29T01:57:01.652Z,9.78
2022-12-29T01:58:01.629Z,9.79
2022-12-29T01:59:01.659Z,9.79
2022-12-29T02:00:01.603Z,9.81
2022-12-29T02:01:01.683Z,9.81
2022-12-29T02:02:01.654Z,9.83
2022-12-29T02:03:01.635Z,9.84
2022-12-29T02:04:01.561Z,9.84
2022-12-29T02:05:04.687Z,9.87
2022-12-29T02:06:01.537Z,9.87
2022-12-29T02:07:01.539Z,9.90
2022-12-29T02:08:01.497Z,9.91
2022-12-29T02:09:01.522Z,9.90
2022-12-29T02:10:01.499Z,9.93
2022-12-29T02:11:01.475Z,9.94
2022-12-29T02:12:01.456Z,9.94
2022-12-29T02:13:01.466Z,9.93
2022-12-29T02:14:03.761Z,9.96
2022-12-29T02:15:01.444Z,9.94
2022-12-29T02:16:01.456Z,9.96
2022-12-29T02:17:01.458Z,9.99
2022-12-29T02:18:01.397Z,9.96
2022-12-29T02:19:01.385Z,9.96
2022-12-29T02:20:01.373Z,9.94
2022-12-29T02:21:01.350Z,9.96
2022-12-29T02:22:01.390Z,9.96
2022-12-29T02:23:01.344Z,9.97
2022-12-29T02:24:01.317Z,9.97
2022-12-29T02:25:01.314Z,9.97
2022-12-29T02:26:01.318Z,9.96
2022-12-29T02:27:01.282Z,9.99
2022-12-29T02:28:01.286Z,9.97
2022-12-29T02:29:01.267Z,9.97
2022-12-29T02:30:01.267Z,9.97
2022-12-29T02:31:01.240Z,9.99
2022-12-29T02:32:01.416Z,9.97
2022-12-29T02:33:01.223Z,9.99
2022-12-29T02:34:01.228Z,9.97
2022-12-29T02:35:01.197Z,9.97
2022-12-29T02:36:01.195Z,9.97
2022-12-29T02:37:01.214Z,9.99
2022-12-29T02:38:01.169Z,9.99
2022-12-29T02:39:01.151Z,9.99
2022-12-29T02:40:01.146Z,10.01
2022-12-29T02:41:01.124Z,10.01
2022-12-29T02:42:01.131Z,10.02
2022-12-29T02:43:01.119Z,10.04
2022-12-29T02:44:01.111Z,10.05
2022-12-29T02:45:01.081Z,10.05
2022-12-29T02:46:01.245Z,10.07
2022-12-29T02:47:01.100Z,10.07
2022-12-29T02:48:01.053Z,10.11
2022-12-29T02:49:01.050Z,10.09
2022-12-29T02:50:01.032Z,10.14
2022-12-29T02:51:01.050Z,10.18
2022-12-29T02:52:01.021Z,10.20
2022-12-29T02:53:01.009Z,10.22
2022-12-29T02:54:00.984Z,10.26
2022-12-29T02:55:00.975Z,10.26
2022-12-29T02:56:00.977Z,10.29
2022-12-29T02:57:00.972Z,10.30
2022-12-29T02:58:00.947Z,10.29
2022-12-29T02:59:00.959Z,10.33
2022-12-29T03:00:00.917Z,10.34
2022-12-29T03:01:00.941Z,10.34
2022-12-29T03:02:01.057Z,10.38
2022-12-29T03:03:00.969Z,10.38
2022-12-29T03:04:00.878Z,10.40
2022-12-29T03:05:00.869Z,10.42
2022-12-29T03:06:00.845Z,10.42
2022-12-29T03:07:00.829Z,10.44
2022-12-29T03:08:00.838Z,10.44
2022-12-29T03:09:00.814Z,10.45
2022-12-29T03:10:00.803Z,10.47
2022-12-29T03:11:00.792Z,10.48
2022-12-29T03:12:00.784Z,10.47
2022-12-29T03:13:00.777Z,10.48
2022-12-29T03:14:00.775Z,10.51
2022-12-29T03:15:00.754Z,10.52
2022-12-29T03:16:00.734Z,10.53
2022-12-29T03:17:00.834Z,10.56
2022-12-29T03:18:00.698Z,10.56
2022-12-29T03:19:00.697Z,10.56
2022-12-29T03:20:00.701Z,10.59
2022-12-29T03:21:00.670Z,10.60
2022-12-29T03:22:00.679Z,10.59
2022-12-29T03:23:00.656Z,10.55
2022-12-29T03:24:00.640Z,10.52
2022-12-29T03:25:00.640Z,10.47
2022-12-29T03:26:00.605Z,10.45
2022-12-29T03:27:00.602Z,10.42
2022-12-29T03:28:00.632Z,10.36
2022-12-29T03:29:00.570Z,10.33
2022-12-29T03:30:00.574Z,10.30
2022-12-29T03:31:00.601Z,10.26
2022-12-29T03:32:00.546Z,10.23
2022-12-29T03:33:00.529Z,10.23
2022-12-29T03:34:00.535Z,10.20
2022-12-29T03:35:00.505Z,10.17
2022-12-29T03:36:00.503Z,10.15
2022-12-29T03:37:00.481Z,10.14
2022-12-29T03:38:00.487Z,10.11
2022-12-29T03:39:00.474Z,10.11
2022-12-29T03:40:00.453Z,10.04
2022-12-29T03:41:00.460Z,10.05
2022-12-29T03:42:00.435Z,10.02
2022-12-29T03:43:00.425Z,10.02
2022-12-29T03:44:00.400Z,10.01
2022-12-29T03:45:00.410Z,9.97
2022-12-29T03:46:00.580Z,9.96
2022-12-29T03:47:00.362Z,9.94
2022-12-29T03:48:00.371Z,9.94
2022-12-29T03:49:00.349Z,9.93
2022-12-29T03:50:00.331Z,9.96
2022-12-29T03:51:00.330Z,9.96
2022-12-29T03:52:00.325Z,9.96
2022-12-29T03:53:00.317Z,9.94
2022-12-29T03:54:00.289Z,9.96
2022-12-29T03:55:00.272Z,9.97
2022-12-29T03:56:00.287Z,9.96
2022-12-29T03:57:00.253Z,9.94
2022-12-29T03:58:00.243Z,9.96
2022-12-29T03:59:00.271Z,9.97
2022-12-29T04:00:00.235Z,9.99
2022-12-29T04:01:00.238Z,9.97
2022-12-29T04:02:00.404Z,9.96
2022-12-29T04:03:00.290Z,9.94
2022-12-29T04:04:00.187Z,9.97
2022-12-29T04:05:00.166Z,9.96
2022-12-29T04:06:00.157Z,9.96
2022-12-29T04:07:00.166Z,9.96
2022-12-29T04:08:00.150Z,9.97
2022-12-29T04:09:00.156Z,9.99
2022-12-29T04:10:00.153Z,10.01
2022-12-29T04:11:00.109Z,10.02
2022-12-29T04:12:00.145Z,10.01
2022-12-29T04:13:00.127Z,9.99
2022-12-29T04:14:00.073Z,10.01
2022-12-29T04:15:00.075Z,10.01
2022-12-29T04:16:00.198Z,10.04
2022-12-29T04:17:00.028Z,10.05
2022-12-29T04:18:00.034Z,10.09
2022-12-29T04:19:00.046Z,10.09
2022-12-29T04:20:00.001Z,10.12
2022-12-29T04:21:00.014Z,10.14
2022-12-29T04:21:59.974Z,10.14
2022-12-29T04:22:59.980Z,10.12
2022-12-29T04:23:59.970Z,10.15
2022-12-29T04:24:59.953Z,10.17
2022-12-29T04:25:59.947Z,10.15
2022-12-29T04:26:59.922Z,10.17
2022-12-29T04:27:59.930Z,10.17
2022-12-29T04:28:59.922Z,10.17
2022-12-29T04:29:59.913Z,10.18
2022-12-29T04:30:59.929Z,10.20
2022-12-29T04:31:59.889Z,10.22
2022-12-29T04:32:59.859Z,10.25
2022-12-29T04:33:59.865Z,10.27
2022-12-29T04:34:59.831Z,10.30
2022-12-29T04:35:59.833Z,10.34
2022-12-29T04:36:59.830Z,10.34
2022-12-29T04:37:59.811Z,10.38
2022-12-29T04:38:59.803Z,10.40
2022-12-29T04:39:59.787Z,10.44
2022-12-29T04:40:59.801Z,10.44
2022-12-29T04:41:59.761Z,10.45
2022-12-29T04:42:59.757Z,10.47
2022-12-29T04:43:59.740Z,10.48
2022-12-29T04:44:59.735Z,10.52
2022-12-29T04:45:59.798Z,10.53
2022-12-29T04:46:59.719Z,10.55
2022-12-29T04:47:59.697Z,10.55
2022-12-29T04:48:59.682Z,10.53
2022-12-29T04:49:59.668Z,10.55
2022-12-29T04:50:59.673Z,10.59
2022-12-29T04:51:59.675Z,10.56
2022-12-29T04:52:59.647Z,10.60
2022-12-29T04:53:59.661Z,10.60
2022-12-29T04:54:59.627Z,10.61
2022-12-29T04:55:59.609Z,10.61
2022-12-29T04:56:59.611Z,10.64
2022-12-29T04:57:59.584Z,10.63
2022-12-29T04:58:59.569Z,10.66
2022-12-29T04:59:59.585Z,10.66
2022-12-29T05:00:59.550Z,10.67
2022-12-29T05:01:59.643Z,10.70
2022-12-29T05:02:59.719Z,10.71
2022-12-29T05:03:59.569Z,10.73
2022-12-29T05:04:59.519Z,10.73
2022-12-29T05:05:59.498Z,10.76
2022-12-29T05:06:59.501Z,10.74
2022-12-29T05:07:59.505Z,10.76
2022-12-29T05:08:59.498Z,10.76
2022-12-29T05:09:59.457Z,10.78
2022-12-29T05:10:59.446Z,10.76
2022-12-29T05:11:59.442Z,10.78
2022-12-29T05:12:59.435Z,10.76
2022-12-29T05:13:59.437Z,10.76
2022-12-29T05:14:59.417Z,10.76
2022-12-29T05:15:59.408Z,10.78
2022-12-29T05:16:59.389Z,10.79
2022-12-29T05:17:59.389Z,10.78
2022-12-29T05:18:59.368Z,10.79
2022-12-29T05:19:59.373Z,10.79
2022-12-29T05:20:59.351Z,10.79
2022-12-29T05:21:59.332Z,10.78
2022-12-29T05:22:59.309Z,10.78
2022-12-29T05:23:59.305Z,10.79
2022-12-29T05:24:59.295Z,10.78
2022-12-29T05:25:59.310Z,10.78
2022-12-29T05:26:59.272Z,10.78
2022-12-29T05:27:59.274Z,10.79
2022-12-29T05:28:59.268Z,10.79
2022-12-29T05:29:59.237Z,10.82
2022-12-29T05:30:59.277Z,10.81
2022-12-29T05:31:59.244Z,10.79
2022-12-29T05:32:59.218Z,10.81
2022-12-29T05:33:59.199Z,10.82
2022-12-29T05:34:59.193Z,10.81
2022-12-29T05:35:59.185Z,10.81
2022-12-29T05:36:59.163Z,10.81
2022-12-29T05:37:59.171Z,10.81
2022-12-29T05:38:59.141Z,10.82
2022-12-29T05:39:59.133Z,10.84
2022-12-29T05:40:59.118Z,10.82
2022-12-29T05:41:59.117Z,10.84
2022-12-29T05:42:59.093Z,10.85
2022-12-29T05:43:59.083Z,10.84
2022-12-29T05:44:59.085Z,10.84
2022-12-29T05:45:59.050Z,10.84
2022-12-29T05:46:59.086Z,10.85
2022-12-29T05:47:59.048Z,10.85
2022-12-29T05:48:59.028Z,10.85
2022-12-29T05:49:59.009Z,10.84
2022-12-29T05:50:59.002Z,10.85
2022-12-29T05:51:58.984Z,10.84
2022-12-29T05:52:58.995Z,10.85
2022-12-29T05:53:58.973Z,10.85
2022-12-29T05:54:58.951Z,10.86
2022-12-29T05:55:58.948Z,10.89
2022-12-29T05:56:58.919Z,10.89
2022-12-29T05:57:58.913Z,10.88
2022-12-29T05:58:58.929Z,10.91
2022-12-29T05:59:58.935Z,10.92
2022-12-29T06:00:58.887Z,10.97
2022-12-29T06:01:59.052Z,10.96
2022-12-29T06:02:59.158Z,10.96
2022-12-29T06:03:58.944Z,10.94
2022-12-29T06:04:58.836Z,10.99
2022-12-29T06:05:58.817Z,11.00
2022-12-29T06:06:58.812Z,11.00
2022-12-29T06:07:58.804Z,11.03
2022-12-29T06:08:58.796Z,11.02
2022-12-29T06:09:58.799Z,11.00
2022-12-29T06:10:58.776Z,11.03
2022-12-29T06:11:58.762Z,11.03
2022-12-29T06:12:58.748Z,11.04
2022-12-29T06:13:58.747Z,11.03
2022-12-29T06:14:58.731Z,11.03
2022-12-29T06:15:58.750Z,11.06
2022-12-29T06:16:58.710Z,11.07
2022-12-29T06:17:58.692Z,11.11
2022-12-29T06:18:58.704Z,11.11
2022-12-29T06:19:58.678Z,11.14
2022-12-29T06:20:58.662Z,11.14
2022-12-29T06:21:58.674Z,11.14
2022-12-29T06:22:58.635Z,11.14
2022-12-29T06:23:58.622Z,11.11
2022-12-29T06:25:04.360Z,11.11
2022-12-29T06:25:58.607Z,11.10
2022-12-29T06:26:58.592Z,11.09
2022-12-29T06:27:58.590Z,11.09
2022-12-29T06:28:58.564Z,11.09
2022-12-29T06:29:58.551Z,11.09
2022-12-29T06:30:58.543Z,11.10
2022-12-29T06:31:58.667Z,11.14
2022-12-29T06:32:58.544Z,11.10
2022-12-29T06:34:00.372Z,11.11
2022-12-29T06:34:58.502Z,11.14
2022-12-29T06:35:58.480Z,11.14
2022-12-29T06:36:58.477Z,11.11
2022-12-29T06:37:58.475Z,11.10
2022-12-29T06:38:58.518Z,11.09
2022-12-29T06:39:58.460Z,11.10
2022-12-29T06:40:58.432Z,11.07
2022-12-29T06:41:58.436Z,11.07
2022-12-29T06:42:58.419Z,11.09
2022-12-29T06:43:58.404Z,11.06
2022-12-29T06:44:58.404Z,11.07
2022-12-29T06:45:58.462Z,11.06
2022-12-29T06:46:58.496Z,11.07
2022-12-29T06:47:58.383Z,11.06
2022-12-29T06:48:58.397Z,11.06
2022-12-29T06:49:58.331Z,11.09
2022-12-29T06:50:58.343Z,11.10
2022-12-29T06:51:58.303Z,11.10
2022-12-29T06:52:58.304Z,11.11
2022-12-29T06:53:58.303Z,11.11
2022-12-29T06:54:58.278Z,11.11
2022-12-29T06:55:58.274Z,11.11
2022-12-29T06:56:58.275Z,11.11
2022-12-29T06:57:58.255Z,11.11
2022-12-29T06:58:58.327Z,11.15
2022-12-29T06:59:58.227Z,11.15
2022-12-29T07:00:58.279Z,11.14
2022-12-29T07:01:58.482Z,11.14
2022-12-29T07:02:58.287Z,11.11
2022-12-29T07:03:58.171Z,11.11
2022-12-29T07:04:58.176Z,11.11
2022-12-29T07:05:58.180Z,11.10
2022-12-29T07:06:58.152Z,11.10
2022-12-29T07:07:58.140Z,11.10
2022-12-29T07:08:58.155Z,11.07
2022-12-29T07:09:58.116Z,11.06
2022-12-29T07:10:58.112Z,11.06
2022-12-29T07:11:58.094Z,11.03
2022-12-29T07:12:58.091Z,11.02
2022-12-29T07:14:04.717Z,11.02
2022-12-29T07:14:58.098Z,11.02
2022-12-29T07:15:58.057Z,11.02
2022-12-29T07:16:58.077Z,11.02
2022-12-29T07:17:58.031Z,10.99
2022-12-29T07:18:58.019Z,10.97
2022-12-29T07:19:58.018Z,10.97
2022-12-29T07:20:57.990Z,10.96
2022-12-29T07:21:57.990Z,10.96
2022-12-29T07:22:57.973Z,10.94
2022-12-29T07:23:57.959Z,10.94
2022-12-29T07:24:57.955Z,10.92
2022-12-29T07:25:57.947Z,10.92
2022-12-29T07:26:57.932Z,10.92
2022-12-29T07:27:57.917Z,10.92
2022-12-29T07:28:57.898Z,10.91
2022-12-29T07:29:57.901Z,10.91
2022-12-29T07:30:57.890Z,10.89
2022-12-29T07:31:57.923Z,10.91
2022-12-29T07:32:57.861Z,10.91
2022-12-29T07:33:57.853Z,10.91
2022-12-29T07:34:57.844Z,10.91
2022-12-29T07:35:57.854Z,10.94
2022-12-29T07:36:57.820Z,10.92
2022-12-29T07:37:57.811Z,10.94
2022-12-29T07:38:57.813Z,10.92
2022-12-29T07:39:57.795Z,10.92
2022-12-29T07:40:57.771Z,10.96
2022-12-29T07:42:04.358Z,10.96
2022-12-29T07:42:57.767Z,10.97
2022-12-29T07:43:57.751Z,10.97
2022-12-29T07:44:57.735Z,10.96
2022-12-29T07:45:57.834Z,10.96
2022-12-29T07:46:58.964Z,10.92
2022-12-29T07:47:57.690Z,10.91
2022-12-29T07:48:57.697Z,10.88
2022-12-29T07:49:57.691Z,10.86
2022-12-29T07:50:57.655Z,10.88
2022-12-29T07:51:57.644Z,10.88
2022-12-29T07:52:57.645Z,10.86
2022-12-29T07:53:57.630Z,10.88
2022-12-29T07:54:57.614Z,10.86
2022-12-29T07:55:57.612Z,10.88
2022-12-29T07:56:57.591Z,10.84
2022-12-29T07:57:57.618Z,10.84
2022-12-29T07:58:57.581Z,10.82
2022-12-29T07:59:57.549Z,10.84
2022-12-29T08:00:57.556Z,10.85
2022-12-29T08:01:57.676Z,10.86
2022-12-29T08:02:57.536Z,10.88
2022-12-29T08:03:57.991Z,10.88
2022-12-29T08:04:57.505Z,10.91
2022-12-29T08:05:57.481Z,10.89
2022-12-29T08:06:57.470Z,10.91
2022-12-29T08:07:57.467Z,10.92
2022-12-29T08:08:57.457Z,10.92
2022-12-29T08:09:57.436Z,10.92
2022-12-29T08:10:57.432Z,10.91
2022-12-29T08:11:57.408Z,10.91
2022-12-29T08:12:57.423Z,10.91
2022-12-29T08:13:57.383Z,10.91
2022-12-29T08:14:57.394Z,10.89
2022-12-29T08:15:57.422Z,10.89
2022-12-29T08:16:57.381Z,10.89
2022-12-29T08:17:57.355Z,10.89
2022-12-29T08:18:57.342Z,10.88
2022-12-29T08:19:57.332Z,10.89
2022-12-29T08:20:57.307Z,10.88
2022-12-29T08:21:57.295Z,10.88
2022-12-29T08:22:57.298Z,10.84
2022-12-29T08:23:57.268Z,10.81
2022-12-29T08:24:57.257Z,10.81
2022-12-29T08:25:57.256Z,10.81
2022-12-29T08:26:57.275Z,10.81
2022-12-29T08:27:57.265Z,10.81
2022-12-29T08:28:57.334Z,10.81
2022-12-29T08:29:57.203Z,10.82
2022-12-29T08:30:58.001Z,10.84
2022-12-29T08:31:57.268Z,10.84
2022-12-29T08:32:57.156Z,10.82
2022-12-29T08:33:57.188Z,10.84
2022-12-29T08:34:57.156Z,10.82
2022-12-29T08:35:57.163Z,10.82
2022-12-29T08:36:57.952Z,10.82
2022-12-29T08:37:57.257Z,10.81
2022-12-29T08:38:57.107Z,10.82
2022-12-29T08:39:57.109Z,10.82
2022-12-29T08:40:57.149Z,10.81
2022-12-29T08:41:57.160Z,10.81
2022-12-29T08:42:57.197Z,10.82
2022-12-29T08:43:57.195Z,10.85
2022-12-29T08:44:57.229Z,10.85
2022-12-29T08:45:57.265Z,10.86
2022-12-29T08:46:57.144Z,10.85
2022-12-29T08:47:57.043Z,10.85
2022-12-29T08:48:58.208Z,10.85
2022-12-29T08:49:56.976Z,10.84
2022-12-29T08:50:56.983Z,10.85
2022-12-29T08:51:56.974Z,10.85
2022-12-29T08:52:56.952Z,10.84
2022-12-29T08:53:56.945Z,10.85
2022-12-29T08:54:56.934Z,10.82
2022-12-29T08:56:00.797Z,10.82
2022-12-29T08:56:56.919Z,10.81
2022-12-29T08:57:56.890Z,10.84
2022-12-29T08:58:56.884Z,10.81
2022-12-29T08:59:56.870Z,10.79
2022-12-29T09:00:56.858Z,10.78
2022-12-29T09:01:56.920Z,10.78
2022-12-29T09:02:57.053Z,10.76
2022-12-29T09:04:56.888Z,10.63
2022-12-29T09:05:56.811Z,10.51
2022-12-29T09:06:56.778Z,10.44
2022-12-29T09:07:56.795Z,10.33
2022-12-29T09:08:56.752Z,10.30
2022-12-29T09:09:56.770Z,10.25
2022-12-29T09:10:56.757Z,10.20
2022-12-29T09:11:56.723Z,10.18
2022-12-29T09:12:56.712Z,10.18
2022-12-29T09:13:56.729Z,10.15
2022-12-29T09:14:56.719Z,10.15
2022-12-29T09:15:56.722Z,10.12
2022-12-29T09:16:56.668Z,10.12
2022-12-29T09:17:56.679Z,10.11
2022-12-29T09:18:56.639Z,10.11
2022-12-29T09:19:56.629Z,10.12
2022-12-29T09:20:56.621Z,10.12
2022-12-29T09:21:56.631Z,10.12
2022-12-29T09:22:56.586Z,10.12
2022-12-29T09:23:56.623Z,10.17
2022-12-29T09:24:56.603Z,10.18
2022-12-29T09:25:56.550Z,10.23
2022-12-29T09:26:56.539Z,10.27
2022-12-29T09:27:56.537Z,10.29
2022-12-29T09:28:56.553Z,10.29
2022-12-29T09:29:56.511Z,10.26
2022-12-29T09:30:56.533Z,10.25
2022-12-29T09:31:56.484Z,10.25
2022-12-29T09:32:56.517Z,10.20
2022-12-29T09:33:56.467Z,10.23
2022-12-29T09:34:56.559Z,10.23
2022-12-29T09:35:56.434Z,10.22
2022-12-29T09:36:56.446Z,10.22
2022-12-29T09:37:56.418Z,10.25
2022-12-29T09:38:56.396Z,10.27
2022-12-29T09:39:56.426Z,10.27
2022-12-29T09:40:56.374Z,10.27
2022-12-29T09:41:56.382Z,10.32
2022-12-29T09:42:56.361Z,10.32
2022-12-29T09:43:56.352Z,10.33
2022-12-29T09:44:56.423Z,10.33
2022-12-29T09:45:56.355Z,10.34
2022-12-29T09:46:56.486Z,10.40
2022-12-29T09:47:56.301Z,10.42
2022-12-29T09:48:56.301Z,10.45
2022-12-29T09:49:56.277Z,10.48
2022-12-29T09:50:56.274Z,10.51
2022-12-29T09:51:56.266Z,10.51
2022-12-29T09:52:56.248Z,10.51
2022-12-29T09:53:56.228Z,10.52
2022-12-29T09:55:02.949Z,10.51
2022-12-29T09:55:56.224Z,10.52
2022-12-29T09:56:56.191Z,10.55
2022-12-29T09:57:56.195Z,10.55
2022-12-29T09:58:56.168Z,10.53
2022-12-29T09:59:56.156Z,10.55
2022-12-29T10:00:56.278Z,10.59
2022-12-29T10:01:56.405Z,10.53
2022-12-29T10:02:56.257Z,10.53
2022-12-29T10:03:56.131Z,10.56
2022-12-29T10:04:56.146Z,10.59
2022-12-29T10:05:56.080Z,10.61
2022-12-29T10:07:27.883Z,10.63
2022-12-29T10:07:56.086Z,10.67
2022-12-29T10:08:56.052Z,10.68
2022-12-29T10:09:56.047Z,10.71
2022-12-29T10:10:56.069Z,10.73
2022-12-29T10:11:56.023Z,10.74
2022-12-29T10:12:56.001Z,10.79
2022-12-29T10:13:56.017Z,10.81
2022-12-29T10:14:55.995Z,10.81
2022-12-29T10:15:56.030Z,10.85
2022-12-29T10:16:55.977Z,10.84
2022-12-29T10:17:55.958Z,10.86
2022-12-29T10:18:55.958Z,10.89
2022-12-29T10:19:55.929Z,10.89
2022-12-29T10:20:55.919Z,10.91
2022-12-29T10:21:55.921Z,10.92
2022-12-29T10:22:55.931Z,10.91
2022-12-29T10:23:55.893Z,10.91
2022-12-29T10:24:55.871Z,10.92
2022-12-29T10:25:55.884Z,10.94
2022-12-29T10:26:55.850Z,10.94
2022-12-29T10:27:55.837Z,10.94
2022-12-29T10:28:55.855Z,10.92
2022-12-29T10:29:55.856Z,10.89
2022-12-29T10:30:55.803Z,10.92
2022-12-29T10:31:55.883Z,10.91
2022-12-29T10:32:55.786Z,10.88
2022-12-29T10:33:55.790Z,10.85
2022-12-29T10:34:55.761Z,10.84
2022-12-29T10:35:55.751Z,10.85
2022-12-29T10:36:55.732Z,10.88
2022-12-29T10:37:55.732Z,10.89
2022-12-29T10:38:55.754Z,10.89
2022-12-29T10:39:55.713Z,10.89
2022-12-29T10:40:55.698Z,10.88
2022-12-29T10:41:55.706Z,10.91
2022-12-29T10:42:55.678Z,10.91
2022-12-29T10:43:55.657Z,10.89
2022-12-29T10:44:55.975Z,10.89
2022-12-29T10:45:55.743Z,10.89
2022-12-29T10:46:55.619Z,10.91
2022-12-29T10:47:55.611Z,10.89
2022-12-29T10:48:55.612Z,10.92
2022-12-29T10:49:55.666Z,10.94
2022-12-29T10:51:01.425Z,10.96
2022-12-29T10:51:55.576Z,10.92
2022-12-29T10:52:55.564Z,10.94
2022-12-29T10:53:55.553Z,10.94
2022-12-29T10:54:55.529Z,10.94
2022-12-29T10:55:55.520Z,10.96
2022-12-29T10:56:55.502Z,10.97
2022-12-29T10:57:55.654Z,11.00
2022-12-29T10:58:55.482Z,11.02
2022-12-29T10:59:55.501Z,11.02
2022-12-29T11:00:55.555Z,11.02
2022-12-29T11:01:55.698Z,11.00
2022-12-29T11:02:55.608Z,10.99
2022-12-29T11:03:55.426Z,10.97
2022-12-29T11:04:55.435Z,10.99
2022-12-29T11:05:55.402Z,10.97
2022-12-29T11:06:55.415Z,10.97
2022-12-29T11:07:55.528Z,10.99
2022-12-29T11:08:55.388Z,11.00
2022-12-29T11:09:55.356Z,10.99
2022-12-29T11:10:55.350Z,11.00
2022-12-29T11:11:55.336Z,11.00
2022-12-29T11:12:55.330Z,10.99
2022-12-29T11:13:55.312Z,10.97
2022-12-29T11:14:55.285Z,10.97
2022-12-29T11:15:55.275Z,10.97
2022-12-29T11:16:55.344Z,10.97
2022-12-29T11:17:55.257Z,10.96
2022-12-29T11:18:55.238Z,10.94
2022-12-29T11:19:55.238Z,10.94
2022-12-29T11:20:55.240Z,10.94
2022-12-29T11:21:55.231Z,10.94
2022-12-29T11:22:55.207Z,10.96
2022-12-29T11:23:55.181Z,10.96
2022-12-29T11:24:55.180Z,10.94
2022-12-29T11:25:55.159Z,10.96
2022-12-29T11:26:55.164Z,10.96
2022-12-29T11:27:55.156Z,10.96
2022-12-29T11:28:55.153Z,10.96
2022-12-29T11:29:55.109Z,10.97
2022-12-29T11:30:55.113Z,10.97
2022-12-29T11:31:55.123Z,10.99
2022-12-29T11:32:55.082Z,11.00
2022-12-29T11:33:55.076Z,11.00
2022-12-29T11:34:55.068Z,11.00
2022-12-29T11:35:55.056Z,11.00
2022-12-29T11:36:55.025Z,11.00
2022-12-29T11:37:55.033Z,11.02
2022-12-29T11:38:55.019Z,11.03
2022-12-29T11:39:55.011Z,11.04
2022-12-29T11:40:54.988Z,11.07
2022-12-29T11:41:54.984Z,11.06
2022-12-29T11:42:54.974Z,11.07
2022-12-29T11:43:54.959Z,11.07
2022-12-29T11:44:54.936Z,11.06
2022-12-29T11:45:55.062Z,11.06
2022-12-29T11:46:54.912Z,11.07
2022-12-29T11:47:54.918Z,11.07
2022-12-29T11:48:54.894Z,11.07
2022-12-29T11:49:54.887Z,11.07
2022-12-29T11:50:54.896Z,11.06
2022-12-29T11:51:54.880Z,11.04
2022-12-29T11:52:54.856Z,11.07
2022-12-29T11:53:54.848Z,11.06
2022-12-29T11:54:54.827Z,11.06
2022-12-29T11:55:54.822Z,11.03
2022-12-29T11:56:54.859Z,11.04
2022-12-29T11:57:54.791Z,11.04
2022-12-29T11:58:54.779Z,11.04
2022-12-29T11:59:54.767Z,11.03
2022-12-29T12:00:54.747Z,11.02
2022-12-29T12:01:54.831Z,11.00
2022-12-29T12:02:54.841Z,11.00
2022-12-29T12:03:54.982Z,10.99
2022-12-29T12:04:54.719Z,10.99
2022-12-29T12:05:54.733Z,10.97
2022-12-29T12:06:54.725Z,10.96
2022-12-29T12:07:54.681Z,10.96
2022-12-29T12:08:54.717Z,10.94
2022-12-29T12:09:54.652Z,10.94
2022-12-29T12:10:54.643Z,10.91
2022-12-29T12:11:54.628Z,10.91
2022-12-29T12:12:54.624Z,10.91
2022-12-29T12:13:54.606Z,10.91
2022-12-29T12:14:54.614Z,10.89
2022-12-29T12:15:57.065Z,10.92
2022-12-29T12:16:54.601Z,10.92
2022-12-29T12:17:54.578Z,10.92
2022-12-29T12:18:54.545Z,10.89
2022-12-29T12:19:54.530Z,10.89
2022-12-29T12:20:54.519Z,10.91
2022-12-29T12:21:54.557Z,10.91
2022-12-29T12:22:54.507Z,10.89
2022-12-29T12:23:54.496Z,10.91
2022-12-29T12:24:54.488Z,10.89
2022-12-29T12:25:54.494Z,10.88
2022-12-29T12:26:54.458Z,10.89
2022-12-29T12:27:54.457Z,10.89
2022-12-29T12:28:54.458Z,10.89
2022-12-29T12:29:54.452Z,10.89
2022-12-29T12:30:54.523Z,10.88
2022-12-29T12:31:54.404Z,10.85
2022-12-29T12:32:54.392Z,10.84
2022-12-29T12:33:54.395Z,10.81
2022-12-29T12:34:54.370Z,10.84
2022-12-29T12:35:54.351Z,10.82
2022-12-29T12:36:54.349Z,10.82
2022-12-29T12:37:54.328Z,10.84
2022-12-29T12:38:54.313Z,10.81
2022-12-29T12:39:54.313Z,10.81
2022-12-29T12:40:54.497Z,10.81
2022-12-29T12:41:54.287Z,10.81
2022-12-29T12:42:54.284Z,10.79
2022-12-29T12:43:54.451Z,10.79
2022-12-29T12:44:54.271Z,10.79
2022-12-29T12:45:54.297Z,10.81
2022-12-29T12:46:54.290Z,10.78
2022-12-29T12:47:54.236Z,10.78
2022-12-29T12:48:54.203Z,10.78
2022-12-29T12:49:54.194Z,10.78
2022-12-29T12:50:54.236Z,10.78
2022-12-29T12:51:57.086Z,10.78
2022-12-29T12:52:54.165Z,10.78
2022-12-29T12:53:54.185Z,10.78
2022-12-29T12:54:54.146Z,10.76
2022-12-29T12:55:54.116Z,10.76
2022-12-29T12:56:54.133Z,10.76
2022-12-29T12:57:54.096Z,10.78
2022-12-29T12:58:54.104Z,10.78